sensor_id;sensor_type;location;lat;lon;timestamp;temperature;humidity
44509;DHT22;30214;52.246;14.408;2023-02-01T00:01:41;3.10;99.90
44509;DHT22;30214;52.246;14.408;2023-02-01T00:04:10;3.10;99.90
44509;DHT22;30214;52.246;14.408;2023-02-01T00:06:37;3.10;99.90
44509;DHT22;30214;52.246;14.408;2023-02-01T00:09:11;3.20;99.90
44509;DHT22;30214;52.246;14.408;2023-02-01T00:11:45;3.20;99.90
44509;DHT22;30214;52.246;14.408;2023-02-01T00:14:15;3.20;99.90
44509;DHT22;30214;52.246;14.408;2023-02-01T00:16:43;3.20;99.90
44509;DHT22;30214;52.246;14.408;2023-02-01T00:19:15;3.20;99.90
44509;DHT22;30214;52.246;14.408;2023-02-01T00:21:43;3.30;99.90
44509;DHT22;30214;52.246;14.408;2023-02-01T00:24:11;3.20;99.90
44509;DHT22;30214;52.246;14.408;2023-02-01T00:26:42;3.10;99.90
44509;DHT22;30214;52.246;14.408;2023-02-01T00:29:12;3.20;99.90
44509;DHT22;30214;52.246;14.408;2023-02-01T00:31:41;3.30;99.90
44509;DHT22;30214;52.246;14.408;2023-02-01T00:34:11;3.40;99.90
44509;DHT22;30214;52.246;14.408;2023-02-01T00:36:39;3.50;99.90
44509;DHT22;30214;52.246;14.408;2023-02-01T00:39:11;3.50;99.90
44509;DHT22;30214;52.246;14.408;2023-02-01T00:41:39;3.60;99.90
44509;DHT22;30214;52.246;14.408;2023-02-01T00:44:10;3.60;99.90
44509;DHT22;30214;52.246;14.408;2023-02-01T00:46:37;3.60;99.90
44509;DHT22;30214;52.246;14.408;2023-02-01T00:49:05;3.60;99.90
44509;DHT22;30214;52.246;14.408;2023-02-01T00:51:34;3.60;99.90
44509;DHT22;30214;52.246;14.408;2023-02-01T00:54:02;3.60;99.90
44509;DHT22;30214;52.246;14.408;2023-02-01T00:56:29;3.70;99.90
44509;DHT22;30214;52.246;14.408;2023-02-01T00:58:57;3.60;99.90
44509;DHT22;30214;52.246;14.408;2023-02-01T01:01:27;3.60;99.90
44509;DHT22;30214;52.246;14.408;2023-02-01T01:03:56;3.40;99.90
44509;DHT22;30214;52.246;14.408;2023-02-01T01:06:28;3.40;99.90
44509;DHT22;30214;52.246;14.408;2023-02-01T01:08:58;3.40;99.90
44509;DHT22;30214;52.246;14.408;2023-02-01T01:11:29;3.40;99.90
44509;DHT22;30214;52.246;14.408;2023-02-01T01:13:58;3.40;99.90
44509;DHT22;30214;52.246;14.408;2023-02-01T01:16:29;3.40;99.90
44509;DHT22;30214;52.246;14.408;2023-02-01T01:18:57;3.50;99.90
44509;DHT22;30214;52.246;14.408;2023-02-01T01:21:24;3.40;99.90
44509;DHT22;30214;52.246;14.408;2023-02-01T01:23:52;3.40;99.90
44509;DHT22;30214;52.246;14.408;2023-02-01T01:26:22;3.50;99.90
44509;DHT22;30214;52.246;14.408;2023-02-01T01:28:49;3.50;99.90
44509;DHT22;30214;52.246;14.408;2023-02-01T01:31:18;3.50;99.90
44509;DHT22;30214;52.246;14.408;2023-02-01T01:33:49;3.50;99.90
44509;DHT22;30214;52.246;14.408;2023-02-01T01:36:18;3.60;99.90
44509;DHT22;30214;52.246;14.408;2023-02-01T01:38:45;3.50;99.90
44509;DHT22;30214;52.246;14.408;2023-02-01T01:41:15;3.50;99.90
44509;DHT22;30214;52.246;14.408;2023-02-01T01:43:57;3.60;99.90
44509;DHT22;30214;52.246;14.408;2023-02-01T01:46:27;3.50;99.90
44509;DHT22;30214;52.246;14.408;2023-02-01T01:49:02;3.50;99.90
44509;DHT22;30214;52.246;14.408;2023-02-01T01:51:35;3.50;99.90
44509;DHT22;30214;52.246;14.408;2023-02-01T01:54:08;3.40;99.90
44509;DHT22;30214;52.246;14.408;2023-02-01T01:56:40;3.40;99.90
44509;DHT22;30214;52.246;14.408;2023-02-01T01:59:09;3.30;99.90
44509;DHT22;30214;52.246;14.408;2023-02-01T02:01:36;3.40;99.90
44509;DHT22;30214;52.246;14.408;2023-02-01T02:04:05;3.40;99.90
44509;DHT22;30214;52.246;14.408;2023-02-01T02:06:42;3.30;99.90
44509;DHT22;30214;52.246;14.408;2023-02-01T02:09:14;3.40;99.90
44509;DHT22;30214;52.246;14.408;2023-02-01T02:11:42;3.30;99.90
44509;DHT22;30214;52.246;14.408;2023-02-01T02:14:12;3.20;99.90
44509;DHT22;30214;52.246;14.408;2023-02-01T02:17:02;3.30;99.90
44509;DHT22;30214;52.246;14.408;2023-02-01T02:20:11;3.30;99.90
44509;DHT22;30214;52.246;14.408;2023-02-01T02:23:36;3.30;99.90
44509;DHT22;30214;52.246;14.408;2023-02-01T02:26:47;3.30;99.90
44509;DHT22;30214;52.246;14.408;2023-02-01T02:30:21;3.40;99.90
44509;DHT22;30214;52.246;14.408;2023-02-01T02:36:39;3.50;99.90
44509;DHT22;30214;52.246;14.408;2023-02-01T02:39:19;3.60;99.90
44509;DHT22;30214;52.246;14.408;2023-02-01T02:41:54;3.50;99.90
44509;DHT22;30214;52.246;14.408;2023-02-01T02:44:45;3.50;99.90
44509;DHT22;30214;52.246;14.408;2023-02-01T02:47:36;3.60;99.90
44509;DHT22;30214;52.246;14.408;2023-02-01T02:50:17;3.60;99.90
44509;DHT22;30214;52.246;14.408;2023-02-01T02:53:10;3.50;99.90
44509;DHT22;30214;52.246;14.408;2023-02-01T02:55:58;3.60;99.90
44509;DHT22;30214;52.246;14.408;2023-02-01T02:58:46;3.60;99.90
44509;DHT22;30214;52.246;14.408;2023-02-01T03:01:32;3.50;99.90
44509;DHT22;30214;52.246;14.408;2023-02-01T03:04:16;3.50;99.90
44509;DHT22;30214;52.246;14.408;2023-02-01T03:06:46;3.50;99.90
44509;DHT22;30214;52.246;14.408;2023-02-01T03:09:19;3.50;99.90
44509;DHT22;30214;52.246;14.408;2023-02-01T03:11:51;3.50;99.90
44509;DHT22;30214;52.246;14.408;2023-02-01T03:14:41;3.40;99.90
44509;DHT22;30214;52.246;14.408;2023-02-01T03:17:15;3.50;99.90
44509;DHT22;30214;52.246;14.408;2023-02-01T03:19:48;3.50;99.90
44509;DHT22;30214;52.246;14.408;2023-02-01T03:22:20;3.40;99.90
44509;DHT22;30214;52.246;14.408;2023-02-01T03:24:52;3.40;99.90
44509;DHT22;30214;52.246;14.408;2023-02-01T03:27:24;3.40;99.90
44509;DHT22;30214;52.246;14.408;2023-02-01T03:29:59;3.50;99.90
44509;DHT22;30214;52.246;14.408;2023-02-01T03:32:31;3.50;99.90
44509;DHT22;30214;52.246;14.408;2023-02-01T03:35:21;3.50;99.90
44509;DHT22;30214;52.246;14.408;2023-02-01T03:37:53;3.50;99.90
44509;DHT22;30214;52.246;14.408;2023-02-01T03:40:27;3.50;99.90
44509;DHT22;30214;52.246;14.408;2023-02-01T03:43:01;3.50;99.90
44509;DHT22;30214;52.246;14.408;2023-02-01T03:45:36;3.50;99.90
44509;DHT22;30214;52.246;14.408;2023-02-01T03:48:07;3.60;99.90
44509;DHT22;30214;52.246;14.408;2023-02-01T03:50:36;3.60;99.90
44509;DHT22;30214;52.246;14.408;2023-02-01T03:53:08;3.50;99.90
44509;DHT22;30214;52.246;14.408;2023-02-01T03:55:39;3.50;99.90
44509;DHT22;30214;52.246;14.408;2023-02-01T03:58:09;3.50;99.90
44509;DHT22;30214;52.246;14.408;2023-02-01T04:00:40;3.60;99.90
44509;DHT22;30214;52.246;14.408;2023-02-01T04:03:11;3.60;99.90
44509;DHT22;30214;52.246;14.408;2023-02-01T04:05:38;3.60;99.90
44509;DHT22;30214;52.246;14.408;2023-02-01T04:08:07;3.60;99.90
44509;DHT22;30214;52.246;14.408;2023-02-01T04:10:34;3.60;99.90
44509;DHT22;30214;52.246;14.408;2023-02-01T04:13:03;3.60;99.90
44509;DHT22;30214;52.246;14.408;2023-02-01T04:15:30;3.60;99.90
44509;DHT22;30214;52.246;14.408;2023-02-01T04:17:57;3.50;99.90
44509;DHT22;30214;52.246;14.408;2023-02-01T04:20:24;3.60;99.90
44509;DHT22;30214;52.246;14.408;2023-02-01T04:22:51;3.60;99.90
44509;DHT22;30214;52.246;14.408;2023-02-01T04:25:19;3.60;99.90
44509;DHT22;30214;52.246;14.408;2023-02-01T04:27:47;3.60;99.90
44509;DHT22;30214;52.246;14.408;2023-02-01T04:30:16;3.60;99.90
44509;DHT22;30214;52.246;14.408;2023-02-01T04:32:43;3.60;99.90
44509;DHT22;30214;52.246;14.408;2023-02-01T04:35:10;3.60;99.90
44509;DHT22;30214;52.246;14.408;2023-02-01T04:37:37;3.60;99.90
44509;DHT22;30214;52.246;14.408;2023-02-01T04:40:06;3.70;99.90
44509;DHT22;30214;52.246;14.408;2023-02-01T04:42:33;3.70;99.90
44509;DHT22;30214;52.246;14.408;2023-02-01T04:45:01;3.70;99.90
44509;DHT22;30214;52.246;14.408;2023-02-01T04:47:29;3.70;99.90
44509;DHT22;30214;52.246;14.408;2023-02-01T04:49:56;3.70;99.90
44509;DHT22;30214;52.246;14.408;2023-02-01T04:52:24;3.80;99.90
44509;DHT22;30214;52.246;14.408;2023-02-01T04:54:51;3.80;99.90
44509;DHT22;30214;52.246;14.408;2023-02-01T04:57:20;3.80;99.90
44509;DHT22;30214;52.246;14.408;2023-02-01T04:59:47;3.70;99.90
44509;DHT22;30214;52.246;14.408;2023-02-01T05:02:14;3.80;99.90
44509;DHT22;30214;52.246;14.408;2023-02-01T05:04:43;3.80;99.90
44509;DHT22;30214;52.246;14.408;2023-02-01T05:07:10;3.80;99.90
44509;DHT22;30214;52.246;14.408;2023-02-01T05:09:37;3.90;99.90
44509;DHT22;30214;52.246;14.408;2023-02-01T05:12:04;4.00;99.90
44509;DHT22;30214;52.246;14.408;2023-02-01T05:14:50;3.90;99.90
44509;DHT22;30214;52.246;14.408;2023-02-01T05:17:17;3.90;99.90
44509;DHT22;30214;52.246;14.408;2023-02-01T05:19:45;3.90;99.90
44509;DHT22;30214;52.246;14.408;2023-02-01T05:22:12;3.90;99.90
44509;DHT22;30214;52.246;14.408;2023-02-01T05:24:39;4.00;99.90
44509;DHT22;30214;52.246;14.408;2023-02-01T05:27:06;4.00;99.90
44509;DHT22;30214;52.246;14.408;2023-02-01T05:29:36;4.00;99.90
44509;DHT22;30214;52.246;14.408;2023-02-01T05:32:03;4.00;99.90
44509;DHT22;30214;52.246;14.408;2023-02-01T05:34:31;4.10;99.90
44509;DHT22;30214;52.246;14.408;2023-02-01T05:37:00;4.00;99.90
44509;DHT22;30214;52.246;14.408;2023-02-01T05:39:27;4.00;99.90
44509;DHT22;30214;52.246;14.408;2023-02-01T05:41:54;4.00;99.90
44509;DHT22;30214;52.246;14.408;2023-02-01T05:44:21;4.00;99.90
44509;DHT22;30214;52.246;14.408;2023-02-01T05:46:48;4.00;99.90
44509;DHT22;30214;52.246;14.408;2023-02-01T05:49:17;4.00;99.90
44509;DHT22;30214;52.246;14.408;2023-02-01T05:51:44;4.00;99.90
44509;DHT22;30214;52.246;14.408;2023-02-01T05:54:13;4.00;99.90
44509;DHT22;30214;52.246;14.408;2023-02-01T05:56:40;4.00;99.90
44509;DHT22;30214;52.246;14.408;2023-02-01T05:59:09;4.00;99.90
44509;DHT22;30214;52.246;14.408;2023-02-01T06:01:36;4.10;99.90
44509;DHT22;30214;52.246;14.408;2023-02-01T06:04:03;4.10;99.90
44509;DHT22;30214;52.246;14.408;2023-02-01T06:06:30;4.10;99.90
44509;DHT22;30214;52.246;14.408;2023-02-01T06:08:57;4.20;99.90
44509;DHT22;30214;52.246;14.408;2023-02-01T06:11:27;4.10;99.90
44509;DHT22;30214;52.246;14.408;2023-02-01T06:13:54;4.10;99.90
44509;DHT22;30214;52.246;14.408;2023-02-01T06:16:22;4.10;99.90
44509;DHT22;30214;52.246;14.408;2023-02-01T06:18:49;4.10;99.90
44509;DHT22;30214;52.246;14.408;2023-02-01T06:21:20;4.20;99.90
44509;DHT22;30214;52.246;14.408;2023-02-01T06:23:50;4.20;99.90
44509;DHT22;30214;52.246;14.408;2023-02-01T06:26:17;4.10;99.90
44509;DHT22;30214;52.246;14.408;2023-02-01T06:28:46;4.10;99.90
44509;DHT22;30214;52.246;14.408;2023-02-01T06:31:13;4.10;99.90
44509;DHT22;30214;52.246;14.408;2023-02-01T06:33:41;4.10;99.90
44509;DHT22;30214;52.246;14.408;2023-02-01T06:36:12;4.10;99.90
44509;DHT22;30214;52.246;14.408;2023-02-01T06:38:41;4.10;99.90
44509;DHT22;30214;52.246;14.408;2023-02-01T06:41:09;4.10;99.90
44509;DHT22;30214;52.246;14.408;2023-02-01T06:43:36;4.00;99.90
44509;DHT22;30214;52.246;14.408;2023-02-01T06:46:08;4.00;99.90
44509;DHT22;30214;52.246;14.408;2023-02-01T06:48:37;4.00;99.90
44509;DHT22;30214;52.246;14.408;2023-02-01T06:51:04;4.00;99.90
44509;DHT22;30214;52.246;14.408;2023-02-01T06:53:31;4.00;99.90
44509;DHT22;30214;52.246;14.408;2023-02-01T06:56:00;4.00;99.90
44509;DHT22;30214;52.246;14.408;2023-02-01T06:58:28;4.00;99.90
44509;DHT22;30214;52.246;14.408;2023-02-01T07:00:56;4.00;99.90
44509;DHT22;30214;52.246;14.408;2023-02-01T07:03:25;4.00;99.90
44509;DHT22;30214;52.246;14.408;2023-02-01T07:05:55;4.00;99.90
44509;DHT22;30214;52.246;14.408;2023-02-01T07:08:24;4.00;99.90
44509;DHT22;30214;52.246;14.408;2023-02-01T07:10:51;4.00;99.90
44509;DHT22;30214;52.246;14.408;2023-02-01T07:13:18;4.00;99.90
44509;DHT22;30214;52.246;14.408;2023-02-01T07:15:46;4.00;99.90
44509;DHT22;30214;52.246;14.408;2023-02-01T07:18:13;4.00;99.90
44509;DHT22;30214;52.246;14.408;2023-02-01T07:20:42;4.00;99.90
44509;DHT22;30214;52.246;14.408;2023-02-01T07:23:10;4.00;99.90
44509;DHT22;30214;52.246;14.408;2023-02-01T07:25:37;4.00;99.90
44509;DHT22;30214;52.246;14.408;2023-02-01T07:28:04;4.00;99.90
44509;DHT22;30214;52.246;14.408;2023-02-01T07:30:31;4.00;99.90
44509;DHT22;30214;52.246;14.408;2023-02-01T07:32:58;4.00;99.90
44509;DHT22;30214;52.246;14.408;2023-02-01T07:35:26;4.00;99.90
44509;DHT22;30214;52.246;14.408;2023-02-01T07:37:57;3.90;99.90
44509;DHT22;30214;52.246;14.408;2023-02-01T07:40:24;3.90;99.90
44509;DHT22;30214;52.246;14.408;2023-02-01T07:42:54;3.90;99.90
44509;DHT22;30214;52.246;14.408;2023-02-01T07:45:21;3.90;99.90
44509;DHT22;30214;52.246;14.408;2023-02-01T07:47:48;3.90;99.90
44509;DHT22;30214;52.246;14.408;2023-02-01T07:50:18;3.90;99.90
44509;DHT22;30214;52.246;14.408;2023-02-01T07:52:45;3.90;99.90
44509;DHT22;30214;52.246;14.408;2023-02-01T07:55:13;3.90;99.90
44509;DHT22;30214;52.246;14.408;2023-02-01T07:57:41;3.80;99.90
44509;DHT22;30214;52.246;14.408;2023-02-01T08:00:09;3.90;99.90
44509;DHT22;30214;52.246;14.408;2023-02-01T08:02:57;3.90;99.90
44509;DHT22;30214;52.246;14.408;2023-02-01T08:05:24;3.90;99.90
44509;DHT22;30214;52.246;14.408;2023-02-01T08:07:51;3.90;99.90
44509;DHT22;30214;52.246;14.408;2023-02-01T08:10:20;3.90;99.90
44509;DHT22;30214;52.246;14.408;2023-02-01T08:12:47;4.00;99.90
44509;DHT22;30214;52.246;14.408;2023-02-01T08:15:15;4.00;99.90
44509;DHT22;30214;52.246;14.408;2023-02-01T08:17:46;4.00;99.90
44509;DHT22;30214;52.246;14.408;2023-02-01T08:20:14;4.00;99.90
44509;DHT22;30214;52.246;14.408;2023-02-01T08:22:41;4.00;99.90
44509;DHT22;30214;52.246;14.408;2023-02-01T08:25:09;4.00;99.90
44509;DHT22;30214;52.246;14.408;2023-02-01T08:27:38;4.10;99.90
44509;DHT22;30214;52.246;14.408;2023-02-01T08:30:06;4.10;99.90
44509;DHT22;30214;52.246;14.408;2023-02-01T08:32:34;4.10;99.90
44509;DHT22;30214;52.246;14.408;2023-02-01T08:35:02;4.10;99.90
44509;DHT22;30214;52.246;14.408;2023-02-01T08:37:29;4.10;99.90
44509;DHT22;30214;52.246;14.408;2023-02-01T08:39:56;4.30;99.90
44509;DHT22;30214;52.246;14.408;2023-02-01T08:42:23;4.30;99.90
44509;DHT22;30214;52.246;14.408;2023-02-01T08:45:10;4.30;99.90
44509;DHT22;30214;52.246;14.408;2023-02-01T08:47:37;4.30;99.90
44509;DHT22;30214;52.246;14.408;2023-02-01T08:50:05;4.20;99.90
44509;DHT22;30214;52.246;14.408;2023-02-01T08:52:32;4.10;99.90
44509;DHT22;30214;52.246;14.408;2023-02-01T08:55:00;4.10;99.90
44509;DHT22;30214;52.246;14.408;2023-02-01T08:57:27;4.00;99.90
44509;DHT22;30214;52.246;14.408;2023-02-01T08:59:54;4.00;99.90
44509;DHT22;30214;52.246;14.408;2023-02-01T09:02:23;3.90;99.90
44509;DHT22;30214;52.246;14.408;2023-02-01T09:04:50;3.80;99.90
44509;DHT22;30214;52.246;14.408;2023-02-01T09:07:17;3.80;99.90
44509;DHT22;30214;52.246;14.408;2023-02-01T09:09:45;3.60;99.90
44509;DHT22;30214;52.246;14.408;2023-02-01T09:12:12;3.50;99.90
44509;DHT22;30214;52.246;14.408;2023-02-01T09:14:39;3.50;99.90
44509;DHT22;30214;52.246;14.408;2023-02-01T09:17:07;3.50;99.90
44509;DHT22;30214;52.246;14.408;2023-02-01T09:19:36;3.40;99.90
44509;DHT22;30214;52.246;14.408;2023-02-01T09:22:04;3.40;99.90
44509;DHT22;30214;52.246;14.408;2023-02-01T09:24:31;3.40;99.90
44509;DHT22;30214;52.246;14.408;2023-02-01T09:26:58;3.50;99.90
44509;DHT22;30214;52.246;14.408;2023-02-01T09:29:25;3.50;99.90
44509;DHT22;30214;52.246;14.408;2023-02-01T09:31:53;3.50;99.90
44509;DHT22;30214;52.246;14.408;2023-02-01T09:34:20;3.50;99.90
44509;DHT22;30214;52.246;14.408;2023-02-01T09:36:48;3.50;99.90
44509;DHT22;30214;52.246;14.408;2023-02-01T09:39:16;3.50;99.90
44509;DHT22;30214;52.246;14.408;2023-02-01T09:41:51;3.50;99.90
44509;DHT22;30214;52.246;14.408;2023-02-01T09:44:47;3.40;99.90
44509;DHT22;30214;52.246;14.408;2023-02-01T09:47:22;3.50;99.90
44509;DHT22;30214;52.246;14.408;2023-02-01T09:49:54;3.60;99.90
44509;DHT22;30214;52.246;14.408;2023-02-01T09:52:28;3.60;99.90
44509;DHT22;30214;52.246;14.408;2023-02-01T09:55:00;3.70;99.90
44509;DHT22;30214;52.246;14.408;2023-02-01T09:57:43;3.70;99.90
44509;DHT22;30214;52.246;14.408;2023-02-01T10:00:20;3.80;99.90
44509;DHT22;30214;52.246;14.408;2023-02-01T10:02:50;3.70;99.90
44509;DHT22;30214;52.246;14.408;2023-02-01T10:05:24;3.80;99.90
44509;DHT22;30214;52.246;14.408;2023-02-01T10:08:12;3.80;99.90
44509;DHT22;30214;52.246;14.408;2023-02-01T10:10:46;3.80;99.90
44509;DHT22;30214;52.246;14.408;2023-02-01T10:13:30;3.80;99.90
44509;DHT22;30214;52.246;14.408;2023-02-01T10:16:16;3.80;99.90
44509;DHT22;30214;52.246;14.408;2023-02-01T10:21:53;3.90;99.90
44509;DHT22;30214;52.246;14.408;2023-02-01T10:24:39;3.90;99.90
44509;DHT22;30214;52.246;14.408;2023-02-01T10:27:19;3.90;99.90
44509;DHT22;30214;52.246;14.408;2023-02-01T10:29:58;3.90;99.90
44509;DHT22;30214;52.246;14.408;2023-02-01T10:32:31;4.00;99.90
44509;DHT22;30214;52.246;14.408;2023-02-01T10:35:08;4.00;99.90
44509;DHT22;30214;52.246;14.408;2023-02-01T10:37:41;4.10;99.90
44509;DHT22;30214;52.246;14.408;2023-02-01T10:40:16;4.10;99.90
44509;DHT22;30214;52.246;14.408;2023-02-01T10:42:45;4.00;99.90
44509;DHT22;30214;52.246;14.408;2023-02-01T10:45:15;4.00;99.90
44509;DHT22;30214;52.246;14.408;2023-02-01T10:47:45;4.10;99.90
44509;DHT22;30214;52.246;14.408;2023-02-01T10:50:18;4.10;99.90
44509;DHT22;30214;52.246;14.408;2023-02-01T10:52:55;4.20;99.90
44509;DHT22;30214;52.246;14.408;2023-02-01T10:55:37;4.40;99.90
44509;DHT22;30214;52.246;14.408;2023-02-01T10:58:10;4.40;99.90
44509;DHT22;30214;52.246;14.408;2023-02-01T11:00:45;4.50;99.90
44509;DHT22;30214;52.246;14.408;2023-02-01T11:03:22;4.60;99.90
44509;DHT22;30214;52.246;14.408;2023-02-01T11:06:00;4.60;99.90
44509;DHT22;30214;52.246;14.408;2023-02-01T11:08:29;4.50;99.90
44509;DHT22;30214;52.246;14.408;2023-02-01T11:11:00;4.50;99.90
44509;DHT22;30214;52.246;14.408;2023-02-01T11:13:31;4.50;99.90
44509;DHT22;30214;52.246;14.408;2023-02-01T11:16:02;4.50;99.90
44509;DHT22;30214;52.246;14.408;2023-02-01T11:18:32;4.50;99.90
44509;DHT22;30214;52.246;14.408;2023-02-01T11:21:03;4.40;99.90
44509;DHT22;30214;52.246;14.408;2023-02-01T11:23:32;4.50;99.90
44509;DHT22;30214;52.246;14.408;2023-02-01T11:26:13;4.50;99.90
44509;DHT22;30214;52.246;14.408;2023-02-01T11:28:47;4.50;99.90
44509;DHT22;30214;52.246;14.408;2023-02-01T11:31:19;4.50;99.90
44509;DHT22;30214;52.246;14.408;2023-02-01T11:33:50;4.40;99.90
44509;DHT22;30214;52.246;14.408;2023-02-01T11:36:22;4.50;99.90
44509;DHT22;30214;52.246;14.408;2023-02-01T11:38:54;4.60;99.90
44509;DHT22;30214;52.246;14.408;2023-02-01T11:41:41;4.70;99.90
44509;DHT22;30214;52.246;14.408;2023-02-01T11:44:20;4.70;99.90
44509;DHT22;30214;52.246;14.408;2023-02-01T11:46:48;4.60;99.90
44509;DHT22;30214;52.246;14.408;2023-02-01T11:49:21;4.60;99.90
44509;DHT22;30214;52.246;14.408;2023-02-01T11:52:03;4.50;99.90
44509;DHT22;30214;52.246;14.408;2023-02-01T11:55:04;4.60;99.90
44509;DHT22;30214;52.246;14.408;2023-02-01T11:57:51;4.50;99.90
44509;DHT22;30214;52.246;14.408;2023-02-01T12:00:36;4.50;99.90
44509;DHT22;30214;52.246;14.408;2023-02-01T12:06:45;4.50;99.90
44509;DHT22;30214;52.246;14.408;2023-02-01T12:09:33;4.60;99.90
44509;DHT22;30214;52.246;14.408;2023-02-01T12:12:14;4.70;99.90
44509;DHT22;30214;52.246;14.408;2023-02-01T12:14:59;4.80;99.90
44509;DHT22;30214;52.246;14.408;2023-02-01T12:17:52;4.80;99.90
44509;DHT22;30214;52.246;14.408;2023-02-01T12:24:03;4.90;99.90
44509;DHT22;30214;52.246;14.408;2023-02-01T12:26:46;5.10;99.90
44509;DHT22;30214;52.246;14.408;2023-02-01T12:35:33;5.40;99.90
44509;DHT22;30214;52.246;14.408;2023-02-01T12:41:19;5.50;99.90
44509;DHT22;30214;52.246;14.408;2023-02-01T12:44:02;5.50;99.90
44509;DHT22;30214;52.246;14.408;2023-02-01T12:46:35;5.50;99.90
44509;DHT22;30214;52.246;14.408;2023-02-01T12:49:13;5.60;99.90
44509;DHT22;30214;52.246;14.408;2023-02-01T12:51:44;5.60;99.90
44509;DHT22;30214;52.246;14.408;2023-02-01T12:54:16;5.70;99.90
44509;DHT22;30214;52.246;14.408;2023-02-01T12:56:51;5.70;99.90
44509;DHT22;30214;52.246;14.408;2023-02-01T12:59:23;5.70;99.90
44509;DHT22;30214;52.246;14.408;2023-02-01T13:01:55;5.70;99.90
44509;DHT22;30214;52.246;14.408;2023-02-01T13:04:32;5.80;99.90
44509;DHT22;30214;52.246;14.408;2023-02-01T13:07:07;5.90;99.90
44509;DHT22;30214;52.246;14.408;2023-02-01T13:09:42;5.80;99.90
44509;DHT22;30214;52.246;14.408;2023-02-01T13:12:15;5.70;99.90
44509;DHT22;30214;52.246;14.408;2023-02-01T13:14:48;5.70;99.90
44509;DHT22;30214;52.246;14.408;2023-02-01T13:17:22;5.60;99.90
44509;DHT22;30214;52.246;14.408;2023-02-01T13:19:55;5.50;99.90
44509;DHT22;30214;52.246;14.408;2023-02-01T13:22:28;5.50;99.90
44509;DHT22;30214;52.246;14.408;2023-02-01T13:24:59;5.40;99.90
44509;DHT22;30214;52.246;14.408;2023-02-01T13:27:29;5.40;99.90
44509;DHT22;30214;52.246;14.408;2023-02-01T13:29:59;5.40;99.90
44509;DHT22;30214;52.246;14.408;2023-02-01T13:42:23;5.40;99.90
44509;DHT22;30214;52.246;14.408;2023-02-01T13:44:56;5.40;99.90
44509;DHT22;30214;52.246;14.408;2023-02-01T13:47:27;5.40;99.90
44509;DHT22;30214;52.246;14.408;2023-02-01T13:50:00;5.40;99.90
44509;DHT22;30214;52.246;14.408;2023-02-01T13:52:38;5.40;99.90
44509;DHT22;30214;52.246;14.408;2023-02-01T13:55:28;5.40;99.90
44509;DHT22;30214;52.246;14.408;2023-02-01T13:58:06;5.40;99.90
44509;DHT22;30214;52.246;14.408;2023-02-01T14:00:47;5.40;99.90
44509;DHT22;30214;52.246;14.408;2023-02-01T14:03:19;5.40;99.90
44509;DHT22;30214;52.246;14.408;2023-02-01T14:06:17;5.40;99.90
44509;DHT22;30214;52.246;14.408;2023-02-01T14:09:32;5.40;99.90
44509;DHT22;30214;52.246;14.408;2023-02-01T14:15:27;5.60;99.90
44509;DHT22;30214;52.246;14.408;2023-02-01T14:17:55;5.60;99.90
44509;DHT22;30214;52.246;14.408;2023-02-01T14:20:43;5.40;99.90
44509;DHT22;30214;52.246;14.408;2023-02-01T14:23:20;4.60;99.90
44509;DHT22;30214;52.246;14.408;2023-02-01T14:26:05;4.10;99.90
44509;DHT22;30214;52.246;14.408;2023-02-01T14:28:39;3.80;99.90
44509;DHT22;30214;52.246;14.408;2023-02-01T14:34:35;3.50;99.90
44509;DHT22;30214;52.246;14.408;2023-02-01T14:37:12;3.30;99.90
44509;DHT22;30214;52.246;14.408;2023-02-01T14:39:58;3.20;99.90
44509;DHT22;30214;52.246;14.408;2023-02-01T14:42:33;2.90;99.90
44509;DHT22;30214;52.246;14.408;2023-02-01T14:48:45;2.80;99.90
44509;DHT22;30214;52.246;14.408;2023-02-01T14:51:16;2.70;99.90
44509;DHT22;30214;52.246;14.408;2023-02-01T14:53:45;2.70;99.90
44509;DHT22;30214;52.246;14.408;2023-02-01T14:56:15;2.80;99.90
44509;DHT22;30214;52.246;14.408;2023-02-01T14:58:52;2.80;99.90
44509;DHT22;30214;52.246;14.408;2023-02-01T15:01:24;2.90;99.90
44509;DHT22;30214;52.246;14.408;2023-02-01T15:04:01;3.00;99.90
44509;DHT22;30214;52.246;14.408;2023-02-01T15:06:35;3.20;99.90
44509;DHT22;30214;52.246;14.408;2023-02-01T15:09:08;3.30;99.90
44509;DHT22;30214;52.246;14.408;2023-02-01T15:11:56;3.40;99.90
44509;DHT22;30214;52.246;14.408;2023-02-01T15:14:27;3.50;99.90
44509;DHT22;30214;52.246;14.408;2023-02-01T15:16:55;3.70;99.90
44509;DHT22;30214;52.246;14.408;2023-02-01T15:19:24;3.70;99.90
44509;DHT22;30214;52.246;14.408;2023-02-01T15:21:54;3.80;99.90
44509;DHT22;30214;52.246;14.408;2023-02-01T15:24:25;3.90;99.90
44509;DHT22;30214;52.246;14.408;2023-02-01T15:26:54;4.10;99.90
44509;DHT22;30214;52.246;14.408;2023-02-01T15:29:23;4.10;99.90
44509;DHT22;30214;52.246;14.408;2023-02-01T15:31:58;4.10;99.90
44509;DHT22;30214;52.246;14.408;2023-02-01T15:34:44;4.10;99.90
44509;DHT22;30214;52.246;14.408;2023-02-01T15:37:13;4.20;99.90
44509;DHT22;30214;52.246;14.408;2023-02-01T15:40:03;4.20;99.90
44509;DHT22;30214;52.246;14.408;2023-02-01T15:42:33;4.30;99.90
44509;DHT22;30214;52.246;14.408;2023-02-01T15:45:03;4.30;99.90
44509;DHT22;30214;52.246;14.408;2023-02-01T15:47:31;4.40;99.90
44509;DHT22;30214;52.246;14.408;2023-02-01T15:49:59;4.40;99.90
44509;DHT22;30214;52.246;14.408;2023-02-01T15:52:35;4.50;99.90
44509;DHT22;30214;52.246;14.408;2023-02-01T15:55:05;4.50;99.90
44509;DHT22;30214;52.246;14.408;2023-02-01T15:57:36;4.50;99.90
44509;DHT22;30214;52.246;14.408;2023-02-01T16:00:20;4.50;99.90
44509;DHT22;30214;52.246;14.408;2023-02-01T16:02:53;4.50;99.90
44509;DHT22;30214;52.246;14.408;2023-02-01T16:05:30;4.60;99.90
44509;DHT22;30214;52.246;14.408;2023-02-01T16:08:03;4.60;99.90
44509;DHT22;30214;52.246;14.408;2023-02-01T16:10:40;4.50;99.90
44509;DHT22;30214;52.246;14.408;2023-02-01T16:13:09;4.30;99.90
44509;DHT22;30214;52.246;14.408;2023-02-01T16:15:39;4.20;99.90
44509;DHT22;30214;52.246;14.408;2023-02-01T16:18:07;4.10;99.90
44509;DHT22;30214;52.246;14.408;2023-02-01T16:20:36;4.10;99.90
44509;DHT22;30214;52.246;14.408;2023-02-01T16:23:05;4.00;99.90
44509;DHT22;30214;52.246;14.408;2023-02-01T16:25:33;3.90;99.90
44509;DHT22;30214;52.246;14.408;2023-02-01T16:28:01;3.80;99.90
44509;DHT22;30214;52.246;14.408;2023-02-01T16:30:29;3.80;99.90
44509;DHT22;30214;52.246;14.408;2023-02-01T16:32:59;3.80;99.90
44509;DHT22;30214;52.246;14.408;2023-02-01T16:35:29;3.80;99.90
44509;DHT22;30214;52.246;14.408;2023-02-01T16:38:01;3.70;99.90
44509;DHT22;30214;52.246;14.408;2023-02-01T16:40:28;3.60;99.90
44509;DHT22;30214;52.246;14.408;2023-02-01T16:42:55;3.60;99.90
44509;DHT22;30214;52.246;14.408;2023-02-01T16:45:22;3.60;99.90
44509;DHT22;30214;52.246;14.408;2023-02-01T16:47:51;3.70;99.90